createdAt,value
2019-04-22T00:03:10.638Z,101665.28
2019-04-22T00:08:43.253Z,101665.02
2019-04-22T00:14:01.216Z,101670.04
2019-04-22T00:27:57.534Z,101656.13
2019-04-22T00:37:17.566Z,101651.69
2019-04-22T00:42:32.925Z,101651.97
2019-04-22T00:47:37.973Z,101645.55
2019-04-22T00:52:50.912Z,101651.33
2019-04-22T01:02:08.368Z,101638.21
2019-04-22T01:09:23.299Z,101638.20
2019-04-22T01:14:35.589Z,101640.96
2019-04-22T01:19:53.043Z,101637.58
2019-04-22T01:28:25.373Z,101634.45
2019-04-22T01:33:28.109Z,101628.34
2019-04-22T01:38:54.328Z,101614.42
2019-04-22T01:44:05.780Z,101614.95
2019-04-22T01:51:40.655Z,101611.53
2019-04-22T02:05:04.889Z,101608.66
2019-04-22T02:09:56.741Z,101604.17
2019-04-22T02:15:06.660Z,101606.36
2019-04-22T02:24:12.216Z,101599.61
2019-04-22T02:30:01.459Z,101607.55
2019-04-22T02:35:23.778Z,101606.14
2019-04-22T02:40:32.389Z,101597.52
2019-04-22T02:45:44.964Z,101601.36
2019-04-22T02:51:28.196Z,101609.88
2019-04-22T03:01:47.448Z,101597.86
2019-04-22T03:06:49.487Z,101593.64
2019-04-22T03:12:11.549Z,101589.44
2019-04-22T03:17:17.672Z,101584.72
2019-04-22T03:27:25.489Z,101594.59
2019-04-22T03:37:52.608Z,101587.03
2019-04-22T03:48:16.143Z,101580.91
2019-04-22T03:53:29.166Z,101589.75
2019-04-22T03:58:23.142Z,101576.68
2019-04-22T04:08:39.817Z,101571.83
2019-04-22T04:14:00.847Z,101568.47
2019-04-22T04:19:07.736Z,101566.20
2019-04-22T04:29:36.116Z,101571.72
2019-04-22T04:34:58.510Z,101562.03
2019-04-22T04:39:43.368Z,101573.38
2019-04-22T04:45:11.080Z,101575.61
2019-04-22T04:50:01.435Z,101589.87
2019-04-22T04:55:18.470Z,101589.87
2019-04-22T05:05:29.373Z,101594.23
2019-04-22T05:21:04.680Z,101596.34
2019-04-22T05:26:02.910Z,101596.16
2019-04-22T05:31:08.642Z,101595.77
2019-04-22T05:41:26.943Z,101595.70
2019-04-22T05:46:36.091Z,101607.46
2019-04-22T05:51:41.942Z,101610.06
2019-04-22T05:56:47.196Z,101609.03
2019-04-22T06:02:05.372Z,101609.62
2019-04-22T06:07:06.437Z,101618.52
2019-04-22T06:12:18.832Z,101619.39
2019-04-22T06:17:38.951Z,101618.88
2019-04-22T06:22:43.149Z,101612.75
2019-04-22T06:27:48.348Z,101612.76
2019-04-22T06:33:00.829Z,101614.15
2019-04-22T06:43:33.664Z,101612.41
2019-04-22T06:48:23.717Z,101616.28
2019-04-22T06:53:29.894Z,101609.84
2019-04-22T06:58:39.893Z,101614.23
2019-04-22T07:14:06.405Z,101610.14
2019-04-22T07:19:21.965Z,101620.30
2019-04-22T07:29:39.234Z,101616.06
2019-04-22T07:34:52.726Z,101609.02
2019-04-22T07:39:55.188Z,101609.44
2019-04-22T07:45:06.667Z,101611.83
2019-04-22T07:50:37.829Z,101608.59
2019-04-22T07:55:25.534Z,101595.05
2019-04-22T08:00:29.222Z,101605.53
2019-04-22T08:05:45.771Z,101587.48
2019-04-22T08:11:08.930Z,101586.88
2019-04-22T08:15:58.723Z,101580.70
2019-04-22T08:21:07.552Z,101579.61
2019-04-22T08:26:13.034Z,101584.14
2019-04-22T08:31:31.650Z,101579.49
2019-04-22T08:36:40.867Z,101583.61
2019-04-22T08:41:51.380Z,101577.36
2019-04-22T08:46:56.121Z,101577.36
2019-04-22T08:52:01.392Z,101577.73
2019-04-22T08:57:10.655Z,101577.69
2019-04-22T09:02:28.630Z,101576.56
2019-04-22T09:12:56.078Z,101569.50
2019-04-22T09:17:47.372Z,101564.28
2019-04-22T09:23:02.687Z,101551.59
2019-04-22T09:28:01.937Z,101552.16
2019-04-22T09:33:20.947Z,101554.13
2019-04-22T09:38:31.481Z,101546.81
2019-04-22T09:48:43.541Z,101539.36
2019-04-22T09:53:57.540Z,101537.79
2019-04-22T09:58:55.611Z,101536.48
2019-04-22T10:04:07.033Z,101528.12
2019-04-22T10:19:37.222Z,101500.89
2019-04-22T10:24:45.416Z,101500.17
2019-04-22T10:30:00.209Z,101495.58
2019-04-22T10:35:01.931Z,101487.87
2019-04-22T10:40:05.690Z,101481.37
2019-04-22T10:45:10.262Z,101481.78
2019-04-22T10:50:20.593Z,101477.77
2019-04-22T10:55:31.790Z,101474.25
2019-04-22T11:00:39.787Z,101474.25
2019-04-22T11:05:48.293Z,101472.34
2019-04-22T11:11:12.347Z,101465.27
2019-04-22T11:16:05.445Z,101465.50
2019-04-22T11:21:13.734Z,101455.25
2019-04-22T11:26:21.895Z,101455.25
2019-04-22T11:31:30.561Z,101459.15
2019-04-22T11:36:38.934Z,101461.16
2019-04-22T11:41:47.019Z,101461.16
2019-04-22T11:46:54.401Z,101455.34
2019-04-22T11:52:06.572Z,101442.63
2019-04-22T11:57:12.940Z,101423.92
2019-04-22T12:02:27.062Z,101412.39
2019-04-22T12:07:35.274Z,101412.39
2019-04-22T12:12:45.920Z,101420.36
2019-04-22T12:17:53.064Z,101408.80
2019-04-22T12:23:01.164Z,101401.62
2019-04-22T12:28:08.808Z,101395.03
2019-04-22T12:33:19.054Z,101393.55
2019-04-22T12:38:27.418Z,101383.00
2019-04-22T12:43:35.445Z,101387.72
2019-04-22T12:48:45.401Z,101365.67
2019-04-22T12:53:53.033Z,101363.55
2019-04-22T12:59:01.368Z,101363.63
2019-04-22T13:04:11.974Z,101345.75
2019-04-22T13:09:19.101Z,101340.81
2019-04-22T13:14:27.378Z,101347.02
2019-04-22T13:19:35.995Z,101348.38
2019-04-22T13:24:43.860Z,101333.06
2019-04-22T13:29:53.043Z,101336.09
2019-04-22T13:35:02.249Z,101328.98
2019-04-22T13:40:10.988Z,101324.55
2019-04-22T13:45:19.611Z,101319.83
2019-04-22T13:51:01.648Z,101322.59
2019-04-22T13:56:05.538Z,101312.61
2019-04-22T14:00:46.814Z,101315.74
2019-04-22T14:05:55.017Z,101318.72
2019-04-22T14:11:14.921Z,101320.77
2019-04-22T14:16:13.174Z,101317.76
2019-04-22T14:21:21.046Z,101314.45
2019-04-22T14:26:44.179Z,101325.11
2019-04-22T14:31:38.334Z,101316.08
2019-04-22T14:36:47.571Z,101311.84
2019-04-22T14:42:14.091Z,101321.31
2019-04-22T14:47:27.966Z,101331.39
2019-04-22T14:52:33.219Z,101314.24
2019-04-22T14:57:21.592Z,101312.14
2019-04-22T15:02:29.780Z,101312.88
2019-04-22T15:07:39.421Z,101312.88
2019-04-22T15:12:50.301Z,101309.68
2019-04-22T15:18:03.040Z,101304.19
2019-04-22T15:23:10.682Z,101308.25
2019-04-22T15:28:19.623Z,101292.97
2019-04-22T15:33:27.704Z,101292.05
2019-04-22T15:38:36.325Z,101292.05
2019-04-22T15:43:45.774Z,101296.41
2019-04-22T15:48:53.804Z,101310.48
2019-04-22T15:54:01.456Z,101303.05
2019-04-22T15:59:32.631Z,101297.44
2019-04-22T16:04:18.904Z,101295.09
2019-04-22T16:09:26.900Z,101295.09
2019-04-22T16:14:41.427Z,101296.37
2019-04-22T16:19:45.145Z,101293.45
2019-04-22T16:25:13.213Z,101295.84
2019-04-22T16:30:21.634Z,101297.38
2019-04-22T16:35:30.793Z,101288.72
2019-04-22T16:40:38.914Z,101286.83
2019-04-22T16:45:47.727Z,101275.97
2019-04-22T16:50:56.502Z,101280.55
2019-04-22T16:56:06.738Z,101290.72
2019-04-22T17:01:48.485Z,101276.29
2019-04-22T17:06:57.692Z,101288.02
2019-04-22T17:12:05.980Z,101288.02
2019-04-22T17:17:14.772Z,101288.13
2019-04-22T17:22:21.821Z,101298.08
2019-04-22T17:27:31.468Z,101296.71
2019-04-22T17:32:39.854Z,101290.75
2019-04-22T17:37:51.866Z,101293.31
2019-04-22T17:43:29.975Z,101293.31
2019-04-22T17:49:04.296Z,101300.69
2019-04-22T17:54:02.604Z,101299.66
2019-04-22T17:59:08.285Z,101288.52
2019-04-22T18:04:00.996Z,101297.39
2019-04-22T18:09:40.328Z,101297.39
2019-04-22T18:14:47.964Z,101300.58
2019-04-22T18:19:50.832Z,101301.57
2019-04-22T18:24:52.939Z,101304.23
2019-04-22T18:30:01.589Z,101301.56
2019-04-22T18:35:16.672Z,101299.66
2019-04-22T18:40:30.958Z,101288.81
2019-04-22T18:50:58.102Z,101295.25
2019-04-22T18:56:02.050Z,101289.70
2019-04-22T19:00:54.910Z,101293.34
2019-04-22T19:06:34.160Z,101284.34
2019-04-22T19:11:35.536Z,101287.28
2019-04-22T19:16:39.903Z,101287.28
2019-04-22T19:21:47.673Z,101287.20
2019-04-22T19:26:59.067Z,101294.91
2019-04-22T19:32:07.017Z,101294.13
2019-04-22T19:37:20.757Z,101288.33
2019-04-22T19:42:31.027Z,101282.00
2019-04-22T19:52:43.434Z,101278.98
2019-04-22T19:57:52.415Z,101278.98
2019-04-22T20:03:21.723Z,101280.48
2019-04-22T20:08:26.226Z,101265.75
2019-04-22T20:13:36.991Z,101265.75
2019-04-22T20:23:40.730Z,101270.72
2019-04-22T20:28:57.604Z,101266.31
2019-04-22T20:34:16.195Z,101259.38
2019-04-22T20:39:13.985Z,101262.68
2019-04-22T20:44:30.175Z,101262.68
2019-04-22T20:49:35.564Z,101241.50
2019-04-22T20:54:44.890Z,101254.83
2019-04-22T20:59:51.124Z,101252.84
2019-04-22T21:04:53.953Z,101252.59
2019-04-22T21:10:09.078Z,101245.95
2019-04-22T21:15:26.477Z,101249.64
2019-04-22T21:20:36.535Z,101252.48
2019-04-22T21:25:32.680Z,101247.00
2019-04-22T21:30:48.171Z,101247.00
2019-04-22T21:36:05.347Z,101245.70
2019-04-22T21:41:09.975Z,101249.14
2019-04-22T21:46:16.468Z,101243.61
2019-04-22T21:51:34.914Z,101232.72
2019-04-22T21:57:13.417Z,101232.72
2019-04-22T22:02:20.828Z,101234.73
2019-04-22T22:07:13.298Z,101237.36
2019-04-22T22:12:39.749Z,101231.87
2019-04-22T22:17:47.481Z,101226.13
2019-04-22T22:23:20.954Z,101219.81
2019-04-22T22:28:01.817Z,101222.41
2019-04-22T22:33:13.095Z,101225.84
2019-04-22T22:38:19.770Z,101226.48
2019-04-22T22:43:18.755Z,101225.72
2019-04-22T22:48:39.811Z,101216.84
2019-04-22T22:53:52.674Z,101207.74
2019-04-22T22:58:52.343Z,101216.50
2019-04-22T23:04:26.464Z,101211.84
2019-04-22T23:09:13.204Z,101213.63
2019-04-22T23:14:21.935Z,101202.88
2019-04-22T23:19:13.694Z,101202.88
2019-04-22T23:25:01.843Z,101205.28
2019-04-22T23:30:19.722Z,101205.28
2019-04-22T23:35:47.105Z,101192.52
2019-04-22T23:41:00.418Z,101192.81
2019-04-22T23:46:06.957Z,101183.09
2019-04-22T23:51:13.805Z,101172.27
2019-04-22T23:56:28.081Z,101183.17
